Time;durP1;ratioP1;P1;durP2;ratioP2;P2;SDS_P1;SDS_P2;PMS_P1;PMS_P2;Temp;Humidity;BMP_temperature;BMP_pressure;BME280_temperature;BME280_humidity;BME280_pressure;Samples;Min_cycle;Max_cycle;Signal;HPM_P1;HPM_P2
2021/09/28 00:02:22;;;;;;;10.38;4.35;;;;;;;9.05;75.13;100613.59;5061443;28;20044;-78
2021/09/28 00:04:48;;;;;;;8.80;4.75;;;;;;;9.05;74.92;100610.94;5110817;28;20035;-76
2021/09/28 00:07:15;;;;;;;11.90;5.10;;;;;;;9.07;74.85;100616.97;5110891;28;20572;-78
2021/09/28 00:09:41;;;;;;;10.60;5.68;;;;;;;9.10;75.26;100614.19;5118597;27;20035;-75
2021/09/28 00:12:07;;;;;;;11.88;5.10;;;;;;;9.11;75.37;100607.97;5093640;28;20051;-80
2021/09/28 00:14:33;;;;;;;9.02;4.97;;;;;;;9.01;75.56;100617.31;5111831;28;20044;-78
2021/09/28 00:16:58;;;;;;;10.45;5.05;;;;;;;8.93;75.79;100619.53;5111821;28;20399;-79
2021/09/28 00:19:24;;;;;;;12.13;4.97;;;;;;;8.87;76.15;100618.06;5110488;28;20044;-84
2021/09/28 00:21:50;;;;;;;10.85;4.80;;;;;;;8.83;76.27;100627.94;5060837;28;20047;-80
2021/09/28 00:24:16;;;;;;;12.27;5.53;;;;;;;8.77;76.24;100628.28;5110808;28;20046;-78
2021/09/28 00:26:42;;;;;;;20.10;5.30;;;;;;;8.69;76.68;100630.50;5110001;28;20094;-79
2021/09/28 00:29:07;;;;;;;9.30;4.63;;;;;;;8.67;76.97;100627.06;5111575;28;20069;-78
2021/09/28 00:31:33;;;;;;;11.50;4.90;;;;;;;8.63;77.20;100639.56;5111723;28;20063;-78
2021/09/28 00:34:00;;;;;;;10.40;5.20;;;;;;;8.66;77.23;100641.19;5093513;28;20043;-79
2021/09/28 00:36:25;;;;;;;10.73;4.90;;;;;;;8.67;77.03;100645.53;5093192;28;20048;-79
2021/09/28 00:38:51;;;;;;;12.52;5.00;;;;;;;8.65;76.90;100640.34;5110349;28;20465;-78
2021/09/28 00:41:17;;;;;;;14.25;4.97;;;;;;;8.60;76.80;100646.78;5093745;28;20040;-81
2021/09/28 00:43:47;;;;;;;12.15;5.60;;;;;;;8.54;77.05;100643.56;5110185;28;20123;-77
2021/09/28 00:46:14;;;;;;;14.40;6.05;;;;;;;8.42;77.13;100641.53;5111752;28;20047;-81
2021/09/28 00:48:40;;;;;;;11.88;5.18;;;;;;;8.28;77.31;100650.16;5093413;28;20042;-79
2021/09/28 00:51:06;;;;;;;12.07;4.28;;;;;;;8.10;77.85;100642.28;5092890;28;20079;-76
2021/09/28 00:53:33;;;;;;;10.98;4.72;;;;;;;7.97;78.44;100657.00;5112896;28;20078;-78
2021/09/28 00:55:59;;;;;;;13.82;5.03;;;;;;;7.94;78.47;100651.88;5097296;28;20049;-75
2021/09/28 00:58:25;;;;;;;11.95;4.78;;;;;;;8.04;78.67;100649.66;5115726;28;20074;-79
2021/09/28 01:00:51;;;;;;;10.30;4.68;;;;;;;8.12;78.95;100650.09;5115056;28;20075;-82
2021/09/28 01:03:17;;;;;;;7.82;3.85;;;;;;;8.16;78.81;100646.38;5116383;28;20141;-80
2021/09/28 01:05:43;;;;;;;9.82;4.07;;;;;;;8.21;78.95;100656.66;5114398;28;20043;-78
2021/09/28 01:08:09;;;;;;;7.90;4.00;;;;;;;8.24;78.87;100657.38;5113902;28;20143;-80
2021/09/28 01:10:36;;;;;;;8.10;4.20;;;;;;;8.31;78.70;100659.69;5113631;28;20624;-80
2021/09/28 01:13:02;;;;;;;7.82;3.58;;;;;;;8.29;78.62;100661.53;5113880;28;20039;-79
2021/09/28 01:15:28;;;;;;;9.60;4.50;;;;;;;8.34;78.23;100663.03;5113892;28;20036;-78
2021/09/28 01:17:54;;;;;;;12.02;5.30;;;;;;;8.38;78.55;100667.19;5115628;28;20043;-81
2021/09/28 01:20:20;;;;;;;8.90;4.72;;;;;;;8.32;78.33;100671.94;5114026;28;20036;-79
2021/09/28 01:22:46;;;;;;;9.77;4.80;;;;;;;8.32;78.51;100671.94;5114977;28;20088;-78
2021/09/28 01:25:12;;;;;;;11.10;4.75;;;;;;;8.35;78.22;100677.03;5113462;28;20089;-82
2021/09/28 01:27:39;;;;;;;10.15;5.05;;;;;;;8.26;77.79;100681.88;5063479;28;20039;-78
2021/09/28 01:30:07;;;;;;;12.15;5.18;;;;;;;8.28;77.90;100689.69;5114886;28;20043;-79
2021/09/28 01:32:33;;;;;;;11.68;5.10;;;;;;;8.22;77.95;100688.25;5114706;28;20050;-81
2021/09/28 01:35:01;;;;;;;8.68;4.40;;;;;;;8.19;77.47;100688.38;5063307;28;20043;-80
2021/09/28 01:37:26;;;;;;;8.68;4.00;;;;;;;8.20;77.29;100683.94;5080119;28;20048;-81
2021/09/28 01:39:52;;;;;;;9.35;4.35;;;;;;;8.17;77.54;100694.66;5114477;28;20039;-76
2021/09/28 01:42:18;;;;;;;10.50;4.45;;;;;;;8.19;77.05;100695.44;5113669;28;20504;-78
2021/09/28 01:44:44;;;;;;;10.70;4.45;;;;;;;8.23;77.15;100695.19;5095944;28;20055;-77
2021/09/28 01:47:09;;;;;;;11.85;4.90;;;;;;;8.24;76.72;100689.00;5114398;28;20464;-75
2021/09/28 01:49:35;;;;;;;9.90;4.60;;;;;;;8.33;77.05;100700.84;5114241;28;20071;-75
2021/09/28 01:52:01;;;;;;;9.25;3.92;;;;;;;8.30;76.93;100695.75;5113112;28;20036;-79
2021/09/28 01:54:27;;;;;;;9.75;4.95;;;;;;;8.27;77.07;100695.88;5078916;28;20090;-74
2021/09/28 01:56:53;;;;;;;9.50;4.28;;;;;;;8.24;76.88;100702.16;5112508;28;20042;-79
2021/09/28 01:59:19;;;;;;;11.25;5.03;;;;;;;8.29;77.09;100708.97;5113891;28;20043;-76
2021/09/28 02:01:44;;;;;;;9.05;4.68;;;;;;;8.18;77.03;100710.38;5122263;27;20063;-73
2021/09/28 02:04:11;;;;;;;8.07;4.60;;;;;;;8.03;77.48;100705.91;5129269;27;20075;-77
2021/09/28 02:06:39;;;;;;;8.82;4.70;;;;;;;7.98;77.70;100710.53;5133153;27;20055;-78
2021/09/28 02:09:07;;;;;;;9.70;4.45;;;;;;;7.85;77.45;100710.28;5134024;27;20507;-79
2021/09/28 02:11:34;;;;;;;11.13;4.72;;;;;;;7.79;78.07;100708.81;5115676;27;20047;-75
2021/09/28 02:14:01;;;;;;;10.20;4.60;;;;;;;7.83;78.04;100714.78;5134194;27;20043;-76
2021/09/28 02:16:27;;;;;;;91.18;29.63;;;;;;;7.82;77.65;100716.56;5133990;27;20367;-76
2021/09/28 02:18:53;;;;;;;9.60;4.40;;;;;;;7.87;77.31;100721.59;5134291;27;20046;-75
2021/09/28 02:21:19;;;;;;;7.57;3.72;;;;;;;7.85;77.37;100721.69;5134858;27;20035;-78
2021/09/28 02:23:45;;;;;;;11.10;4.97;;;;;;;7.75;77.25;100728.31;5134556;27;20110;-80
2021/09/28 02:26:10;;;;;;;9.73;4.88;;;;;;;7.71;77.59;100730.25;5133037;27;20499;-79
2021/09/28 02:28:36;;;;;;;8.95;4.57;;;;;;;7.75;77.52;100738.84;5133611;27;20407;-75
2021/09/28 02:31:02;;;;;;;10.50;4.32;;;;;;;7.83;77.08;100735.84;5133878;27;20081;-78
2021/09/28 02:33:28;;;;;;;12.98;4.60;;;;;;;7.88;76.40;100732.06;5132370;27;20510;-81
2021/09/28 02:35:54;;;;;;;12.30;4.95;;;;;;;7.85;75.95;100747.16;5132534;27;20035;-77
2021/09/28 02:38:20;;;;;;;10.52;4.95;;;;;;;7.80;75.92;100752.66;5133569;27;20467;-75
2021/09/28 02:40:45;;;;;;;12.77;4.68;;;;;;;7.73;76.43;100749.44;5133501;27;20043;-80
2021/09/28 02:43:13;;;;;;;14.15;5.32;;;;;;;7.77;76.04;100753.63;5134942;27;20043;-75
2021/09/28 02:45:40;;;;;;;8.80;4.78;;;;;;;7.70;76.32;100760.16;5115326;27;20219;-80
2021/09/28 02:48:06;;;;;;;10.13;4.43;;;;;;;7.73;76.08;100767.88;5133682;27;20073;-79
2021/09/28 02:50:33;;;;;;;10.38;4.40;;;;;;;7.71;76.69;100763.63;5133956;27;20495;-75
2021/09/28 02:53:01;;;;;;;13.40;4.55;;;;;;;7.69;76.22;100763.69;5133551;27;20643;-75
2021/09/28 02:55:27;;;;;;;11.52;4.60;;;;;;;7.70;75.89;100762.78;5133219;27;20130;-78
2021/09/28 02:57:53;;;;;;;15.43;5.38;;;;;;;7.66;76.43;100763.00;5133153;27;20039;-77
2021/09/28 03:00:19;;;;;;;10.82;5.57;;;;;;;7.72;76.44;100770.59;5133400;27;20099;-78
2021/09/28 03:02:45;;;;;;;11.15;4.50;;;;;;;7.64;76.26;100775.34;5134226;27;20041;-77
2021/09/28 03:05:10;;;;;;;8.07;4.05;;;;;;;7.58;75.63;100776.53;5134804;27;20047;-81
2021/09/28 03:07:36;;;;;;;12.65;5.03;;;;;;;7.55;75.70;100779.28;5132942;27;20055;-78
2021/09/28 03:10:03;;;;;;;10.10;4.32;;;;;;;7.56;74.99;100789.75;5133788;27;20556;-77
2021/09/28 03:12:30;;;;;;;10.32;3.60;;;;;;;7.55;74.97;100788.03;5133708;27;20051;-76
2021/09/28 03:14:55;;;;;;;8.88;3.38;;;;;;;7.56;74.92;100795.03;5137311;27;20043;-76
2021/09/28 03:17:21;;;;;;;10.63;3.70;;;;;;;7.52;75.05;100798.69;5134767;27;20050;-76
2021/09/28 03:19:47;;;;;;;10.20;3.72;;;;;;;7.56;75.14;100795.03;5135269;27;20411;-75
2021/09/28 03:22:32;;;;;;;7.63;3.70;;;;;;;7.49;74.40;100796.22;5133775;27;20050;-76
2021/09/28 03:24:58;;;;;;;8.85;3.10;;;;;;;7.49;74.73;100809.38;5131582;27;20039;-73
2021/09/28 03:27:23;;;;;;;9.05;3.90;;;;;;;7.53;74.64;100810.94;5117198;27;20039;-78
2021/09/28 03:29:49;;;;;;;11.65;4.03;;;;;;;7.47;74.80;100819.13;5131864;27;20047;-74
2021/09/28 03:32:15;;;;;;;8.05;3.65;;;;;;;7.52;74.50;100817.13;5116447;27;20031;-79
2021/09/28 03:34:41;;;;;;;8.65;3.75;;;;;;;7.49;74.39;100814.66;5128258;27;20035;-80
2021/09/28 03:37:09;;;;;;;6.75;3.15;;;;;;;7.49;74.10;100825.19;5088440;28;20045;-77
2021/09/28 03:39:35;;;;;;;7.53;3.13;;;;;;;7.47;73.94;100827.03;5111838;28;20519;-78
2021/09/28 03:42:01;;;;;;;7.88;3.30;;;;;;;7.37;74.65;100823.09;5121766;27;20033;-77
2021/09/28 03:44:29;;;;;;;10.45;3.40;;;;;;;7.29;75.11;100829.56;5128245;27;20070;-74
2021/09/28 03:46:55;;;;;;;8.27;3.00;;;;;;;7.27;75.43;100836.66;5132068;27;20047;-75
2021/09/28 03:49:21;;;;;;;9.95;3.70;;;;;;;7.25;74.75;100832.38;5119674;27;20046;-76
2021/09/28 03:51:46;;;;;;;9.15;3.72;;;;;;;7.22;75.12;100830.75;5092600;28;20039;-75
2021/09/28 03:54:12;;;;;;;9.05;3.95;;;;;;;7.15;75.63;100845.09;5109507;28;20383;-76
2021/09/28 03:56:38;;;;;;;6.90;3.30;;;;;;;7.05;75.77;100842.03;5124870;27;20046;-77
2021/09/28 03:59:04;;;;;;;7.13;3.70;;;;;;;7.00;75.71;100853.66;5132233;27;20439;-77
2021/09/28 04:01:30;;;;;;;8.18;3.42;;;;;;;6.94;75.74;100850.38;5132236;27;20054;-79
2021/09/28 04:03:55;;;;;;;14.80;5.55;;;;;;;6.92;76.23;100851.38;5127291;27;20076;-77
2021/09/28 04:06:23;;;;;;;19.63;9.82;;;;;;;6.85;75.82;100856.00;5131176;27;20073;-83
2021/09/28 04:08:49;;;;;;;18.50;10.48;;;;;;;6.87;76.02;100853.34;5110985;28;20069;-78
2021/09/28 04:11:15;;;;;;;20.60;11.63;;;;;;;6.87;76.89;100858.59;5112657;28;20489;-79
2021/09/28 04:13:43;;;;;;;26.20;10.10;;;;;;;6.85;76.70;100850.75;5111619;28;20062;-80
2021/09/28 04:16:10;;;;;;;18.60;8.35;;;;;;;6.84;76.45;100853.47;5110418;28;20054;-80
2021/09/28 04:18:36;;;;;;;13.60;6.05;;;;;;;6.78;75.84;100865.13;5111051;28;20047;-79
2021/09/28 04:21:02;;;;;;;12.77;5.72;;;;;;;6.73;75.62;100872.31;5113283;28;20044;-81
2021/09/28 04:23:28;;;;;;;17.80;6.22;;;;;;;6.72;75.90;100874.09;5096303;28;20058;-77
2021/09/28 04:25:53;;;;;;;11.98;6.50;;;;;;;6.74;75.38;100868.75;5113649;27;20484;-78
2021/09/28 04:28:19;;;;;;;9.85;5.72;;;;;;;6.72;74.82;100878.50;5126012;27;20103;-77
2021/09/28 04:30:45;;;;;;;11.63;5.45;;;;;;;6.73;74.96;100878.44;5133147;27;20129;-78
2021/09/28 04:33:11;;;;;;;14.52;5.25;;;;;;;6.73;74.54;100882.81;5137165;27;20355;-77
2021/09/28 04:35:36;;;;;;;13.18;6.25;;;;;;;6.75;74.39;100871.34;5134500;27;20133;-81
2021/09/28 04:38:05;;;;;;;17.20;6.25;;;;;;;6.75;74.27;100897.66;5135860;27;20035;-80
2021/09/28 04:40:31;;;;;;;12.68;5.68;;;;;;;6.78;74.30;100891.41;5129920;27;20039;-77
2021/09/28 04:43:00;;;;;;;12.30;6.30;;;;;;;6.76;73.99;100895.84;5135051;27;20039;-77
2021/09/28 04:45:26;;;;;;;16.83;7.25;;;;;;;6.73;74.25;100890.72;5134568;27;20049;-79
2021/09/28 04:47:51;;;;;;;15.65;6.20;;;;;;;6.84;73.85;100895.53;5133879;27;20047;-77
2021/09/28 04:50:17;;;;;;;12.63;6.03;;;;;;;6.91;73.19;100903.09;5123270;27;20039;-79
2021/09/28 04:52:43;;;;;;;15.70;6.25;;;;;;;6.79;73.94;100893.09;5117695;28;20050;-76
2021/09/28 04:55:09;;;;;;;15.38;6.55;;;;;;;6.84;74.11;100900.78;5114437;28;20050;-77
2021/09/28 04:57:35;;;;;;;17.23;6.05;;;;;;;6.83;74.03;100902.59;5113955;28;20035;-77
2021/09/28 05:00:03;;;;;;;16.60;6.43;;;;;;;6.90;73.24;100906.66;5134213;27;20522;-77
2021/09/28 05:02:28;;;;;;;;;;;;;;;6.93;73.32;100905.69;5120649;27;20120;-77
2021/09/28 05:04:54;;;;;;;18.35;6.93;;;;;;;6.88;73.53;100918.16;5132025;27;19972;-78
2021/09/28 05:07:20;;;;;;;13.15;5.70;;;;;;;6.79;73.52;100915.00;5116479;27;20052;-79
2021/09/28 05:09:45;;;;;;;15.60;6.30;;;;;;;6.76;73.23;100919.53;5124086;27;20046;-76
2021/09/28 05:12:11;;;;;;;39.00;14.88;;;;;;;6.74;73.89;100921.34;5118578;27;20043;-76
2021/09/28 05:14:37;;;;;;;15.73;6.50;;;;;;;6.85;73.38;100929.66;5138354;27;20698;-77
2021/09/28 05:17:03;;;;;;;14.55;6.07;;;;;;;6.83;73.71;100920.13;5133331;27;20065;-78
2021/09/28 05:19:28;;;;;;;14.52;6.63;;;;;;;6.85;73.75;100928.81;5135199;27;20463;-74
2021/09/28 05:21:55;;;;;;;18.02;7.20;;;;;;;6.94;73.83;100945.06;5122877;27;20126;-77
2021/09/28 05:24:22;;;;;;;17.77;7.57;;;;;;;6.89;74.02;100936.50;5095716;28;20496;-77
2021/09/28 05:26:48;;;;;;;21.98;6.95;;;;;;;6.92;74.14;100946.88;5125918;27;20092;-80
2021/09/28 05:29:14;;;;;;;19.23;7.13;;;;;;;6.92;73.78;100941.63;5114196;27;20048;-80
2021/09/28 05:31:40;;;;;;;20.38;7.43;;;;;;;6.87;73.70;100946.22;5114521;28;20134;-80
2021/09/28 05:34:05;;;;;;;21.92;7.47;;;;;;;6.84;74.30;100938.47;5114024;28;20059;-82
2021/09/28 05:36:31;;;;;;;16.73;7.45;;;;;;;6.86;73.55;100951.56;5113356;28;20040;-80
2021/09/28 05:38:57;;;;;;;18.90;7.55;;;;;;;6.84;74.07;100946.38;5122446;27;20553;-77
2021/09/28 05:41:22;;;;;;;20.83;8.02;;;;;;;6.94;73.72;100950.31;5114614;28;20035;-76
2021/09/28 05:43:48;;;;;;;15.57;7.10;;;;;;;6.86;73.53;100960.28;5115562;27;20035;-82
2021/09/28 05:46:14;;;;;;;16.58;7.85;;;;;;;6.77;73.74;100963.31;5115755;27;20071;-79
2021/09/28 05:48:40;;;;;;;22.23;8.15;;;;;;;6.81;73.81;100964.88;5115205;28;20515;-78
2021/09/28 05:51:14;;;;;;;20.35;7.63;;;;;;;6.79;74.32;100962.31;5120082;27;20100;-78
2021/09/28 05:53:40;;;;;;;25.50;11.45;;;;;;;6.83;74.10;100963.06;5112998;27;20092;-80
2021/09/28 05:56:05;;;;;;;23.02;7.97;;;;;;;6.80;74.07;100976.31;5114312;28;20403;-78
2021/09/28 05:58:31;;;;;;;18.27;8.07;;;;;;;6.78;74.30;100986.06;5114127;27;20078;-77
2021/09/28 06:00:57;;;;;;;15.80;7.38;;;;;;;6.83;74.07;100986.72;5124766;27;20042;-80
2021/09/28 06:03:23;;;;;;;18.08;7.45;;;;;;;6.81;74.19;100980.66;5125465;27;20582;-77
2021/09/28 06:05:48;;;;;;;21.55;9.18;;;;;;;6.83;73.43;100981.47;5127170;27;20111;-76
2021/09/28 06:08:14;;;;;;;17.08;8.48;;;;;;;6.94;73.26;100984.50;5115408;28;20130;-78
2021/09/28 06:10:42;;;;;;;23.60;9.45;;;;;;;7.02;73.04;100985.97;5116588;27;20059;-78
2021/09/28 06:13:08;;;;;;;21.05;8.13;;;;;;;7.06;72.27;100979.66;5113920;28;20047;-79
2021/09/28 06:15:34;;;;;;;20.17;8.27;;;;;;;7.08;72.14;100983.09;5113853;27;20381;-78
2021/09/28 06:18:00;;;;;;;19.77;7.93;;;;;;;7.15;72.04;100995.06;5119796;27;20038;-78
2021/09/28 06:20:25;;;;;;;16.13;7.75;;;;;;;7.09;71.46;101000.56;5113327;27;20035;-78
2021/09/28 06:22:51;;;;;;;22.52;8.73;;;;;;;7.01;72.10;100994.78;5125167;27;20695;-75
2021/09/28 06:25:17;;;;;;;21.08;8.98;;;;;;;7.10;72.03;100986.50;5112579;27;20035;-75
2021/09/28 06:27:43;;;;;;;28.85;9.95;;;;;;;7.06;71.71;100990.19;5125757;27;20476;-79
2021/09/28 06:30:09;;;;;;;18.23;8.50;;;;;;;7.11;72.09;100994.31;5122525;27;20088;-80
2021/09/28 06:32:35;;;;;;;19.02;8.88;;;;;;;7.17;71.69;100998.50;5104889;27;20051;-76
2021/09/28 06:35:01;;;;;;;17.92;9.00;;;;;;;7.33;71.05;101008.38;5125742;27;20039;-78
2021/09/28 06:37:27;;;;;;;22.42;9.65;;;;;;;7.32;70.94;101011.94;5113786;27;20043;-79
2021/09/28 06:39:52;;;;;;;20.58;8.45;;;;;;;7.37;70.42;101015.22;5128626;27;20047;-79
2021/09/28 06:42:18;;;;;;;18.08;9.02;;;;;;;7.44;70.49;101016.69;5132777;27;20039;-82
2021/09/28 06:44:44;;;;;;;20.55;9.10;;;;;;;7.47;69.63;101018.34;5132688;27;20035;-76
2021/09/28 06:47:09;;;;;;;20.15;8.80;;;;;;;7.45;69.66;101018.38;5134230;27;20043;-78
2021/09/28 06:49:36;;;;;;;21.17;9.13;;;;;;;7.43;69.22;101014.97;5127253;27;20043;-76
2021/09/28 06:52:02;;;;;;;23.85;9.93;;;;;;;7.36;69.10;101009.09;5126813;27;20035;-83
2021/09/28 06:54:27;;;;;;;22.80;9.05;;;;;;;7.58;68.68;101003.78;5128680;27;20483;-78
2021/09/28 06:56:53;;;;;;;17.05;8.57;;;;;;;7.75;68.52;101021.50;5113405;27;20035;-78
2021/09/28 06:59:19;;;;;;;16.42;7.78;;;;;;;7.85;67.65;101016.69;5112735;28;20480;-76
2021/09/28 07:01:45;;;;;;;19.42;8.38;;;;;;;7.91;66.67;101019.03;5112811;28;20039;-76
2021/09/28 07:04:10;;;;;;;18.95;8.52;;;;;;;7.76;65.79;101019.69;5110679;28;20059;-77
2021/09/28 07:06:36;;;;;;;18.15;8.30;;;;;;;7.74;65.40;101022.41;5109445;28;20195;-81
2021/09/28 07:09:02;;;;;;;19.63;8.18;;;;;;;7.77;65.80;101018.78;5112761;28;20046;-83
2021/09/28 07:11:28;;;;;;;30.17;9.20;;;;;;;7.77;65.72;101024.03;5111477;28;20043;-77
2021/09/28 07:13:55;;;;;;;25.58;9.63;;;;;;;7.85;65.66;101021.06;5112605;28;20039;-77
2021/09/28 07:16:21;;;;;;;18.40;8.32;;;;;;;7.79;66.22;101027.47;5111182;28;20175;-76
2021/09/28 07:18:47;;;;;;;21.38;8.90;;;;;;;7.89;65.65;101020.03;5112688;28;20130;-78
2021/09/28 07:21:13;;;;;;;19.00;8.63;;;;;;;8.20;65.48;101022.16;5111802;28;20043;-83
2021/09/28 07:23:40;;;;;;;16.17;8.13;;;;;;;8.54;64.48;101032.94;5113202;28;20145;-81
2021/09/28 07:26:08;;;;;;;15.32;7.53;;;;;;;8.57;63.92;101035.44;5112968;28;20047;-80
2021/09/28 07:28:34;;;;;;;16.52;7.30;;;;;;;8.43;63.77;101043.94;5111416;28;20516;-80
2021/09/28 07:31:00;;;;;;;18.02;7.35;;;;;;;8.21;64.02;101039.66;5110917;28;20044;-76
2021/09/28 07:33:26;;;;;;;16.58;8.13;;;;;;;8.18;64.41;101038.94;5112758;28;20519;-77
2021/09/28 07:35:52;;;;;;;18.60;8.98;;;;;;;8.22;65.37;101043.16;5112909;28;20050;-77
2021/09/28 07:38:18;;;;;;;16.42;9.05;;;;;;;8.29;65.34;101047.22;5112250;28;20032;-75
2021/09/28 07:40:46;;;;;;;19.85;8.82;;;;;;;8.18;66.05;101050.34;5111529;28;20533;-79
2021/09/28 07:43:12;;;;;;;17.50;8.60;;;;;;;8.24;66.06;101054.50;5112995;28;20040;-78
2021/09/28 07:45:40;;;;;;;26.00;10.20;;;;;;;8.22;66.11;101051.94;5111364;28;20058;-75
2021/09/28 07:48:06;;;;;;;28.20;12.13;;;;;;;8.14;66.54;101054.03;5112379;28;20039;-77
2021/09/28 07:50:32;;;;;;;24.40;10.02;;;;;;;8.14;66.97;101059.31;5112587;28;20067;-78
2021/09/28 07:52:58;;;;;;;18.15;9.80;;;;;;;8.32;66.58;101057.63;5111720;28;20134;-76
2021/09/28 07:55:24;;;;;;;17.90;9.80;;;;;;;8.48;65.91;101059.59;5112489;28;20200;-79
2021/09/28 07:57:50;;;;;;;21.02;9.10;;;;;;;8.53;65.50;101063.72;5112297;28;20043;-80
2021/09/28 08:00:16;;;;;;;25.70;9.02;;;;;;;8.54;65.10;101061.97;5112438;28;20051;-78
2021/09/28 08:02:42;;;;;;;21.33;9.27;;;;;;;8.41;65.13;101058.97;5112402;28;20092;-77
2021/09/28 08:05:09;;;;;;;19.33;8.50;;;;;;;8.51;65.14;101062.09;5112886;28;20035;-78
2021/09/28 08:07:35;;;;;;;19.95;8.65;;;;;;;8.56;64.80;101066.22;5113327;28;20450;-77
2021/09/28 08:10:00;;;;;;;17.83;8.52;;;;;;;8.80;64.45;101078.31;5114460;28;20043;-78
2021/09/28 08:12:26;;;;;;;19.20;8.60;;;;;;;8.78;64.26;101075.78;5113387;28;20084;-76
2021/09/28 08:14:53;;;;;;;23.33;9.93;;;;;;;8.58;64.50;101074.94;5113473;28;20047;-78
2021/09/28 08:17:19;;;;;;;19.70;10.10;;;;;;;8.34;65.02;101081.28;5112522;28;20043;-76
2021/09/28 08:19:49;;;;;;;24.48;9.07;;;;;;;7.99;65.56;101075.78;5113234;28;20131;-77
2021/09/28 08:22:15;;;;;;;20.02;8.88;;;;;;;8.14;65.55;101083.03;5113652;28;20040;-79
2021/09/28 08:24:42;;;;;;;20.33;9.07;;;;;;;8.08;65.19;101086.78;5110867;28;20044;-78
2021/09/28 08:29:56;;;;;;;40.00;13.63;;;;;;;8.06;64.47;101087.78;5111919;28;20047;-78
2021/09/28 08:32:22;;;;;;;15.13;7.13;;;;;;;8.02;64.17;101096.75;5110667;28;20079;-77
2021/09/28 08:34:48;;;;;;;14.10;7.28;;;;;;;7.86;63.89;101081.63;5111998;28;20075;-79
2021/09/28 08:37:14;;;;;;;13.50;7.35;;;;;;;7.86;63.58;101088.63;5093335;28;20035;-82
2021/09/28 08:39:40;;;;;;;12.98;6.97;;;;;;;7.85;64.15;101090.44;5111898;28;20043;-79
2021/09/28 08:42:06;;;;;;;14.80;7.65;;;;;;;7.89;63.98;101102.53;5110128;28;20097;-78
2021/09/28 08:44:32;;;;;;;14.45;7.15;;;;;;;8.03;63.48;101098.47;5112141;28;20043;-77
2021/09/28 08:46:58;;;;;;;19.70;7.75;;;;;;;8.16;63.44;101104.91;5110127;28;20050;-77
2021/09/28 08:49:24;;;;;;;14.95;7.72;;;;;;;8.15;63.34;101107.59;5111581;28;20063;-81
2021/09/28 08:51:51;;;;;;;15.27;7.30;;;;;;;8.13;63.52;101102.41;5111565;28;20043;-79
2021/09/28 08:54:18;;;;;;;16.38;6.47;;;;;;;8.17;63.35;101105.75;5109843;28;20043;-76
2021/09/28 08:56:44;;;;;;;12.38;6.90;;;;;;;8.14;62.43;101114.66;5111628;28;20698;-76
2021/09/28 08:59:18;;;;;;;13.02;6.65;;;;;;;8.09;62.85;101114.00;5111422;28;20039;-81
2021/09/28 09:02:06;;;;;;;15.90;7.55;;;;;;;8.08;62.93;101110.50;5111613;28;20096;-76
2021/09/28 09:04:32;;;;;;;15.77;7.43;;;;;;;8.11;62.71;101120.03;5111419;28;20058;-78
2021/09/28 09:06:58;;;;;;;15.75;6.82;;;;;;;8.14;62.21;101127.81;5111160;28;20055;-78
2021/09/28 09:09:26;;;;;;;13.82;6.35;;;;;;;8.32;62.11;101131.41;5111326;28;20047;-79
2021/09/28 09:11:52;;;;;;;11.90;6.43;;;;;;;8.37;61.87;101134.75;5111277;28;20055;-79
2021/09/28 09:14:23;;;;;;;13.43;6.82;;;;;;;8.46;61.26;101127.31;5111003;28;20475;-80
2021/09/28 09:16:51;;;;;;;12.85;6.05;;;;;;;8.64;60.57;101136.22;5115094;28;20044;-81
2021/09/28 09:19:29;;;;;;;19.23;6.85;;;;;;;8.71;60.14;101142.91;5115052;28;20044;-80
2021/09/28 09:21:56;;;;;;;;;;;;;;;8.75;60.67;101133.97;5116163;28;20532;-82
2021/09/28 09:24:45;;;;;;;15.07;6.60;;;;;;;8.69;60.50;101131.59;5097095;28;20344;-79
2021/09/28 09:27:13;;;;;;;18.20;7.47;;;;;;;8.64;60.59;101133.59;5113390;28;20698;-79
2021/09/28 09:29:39;;;;;;;17.10;7.40;;;;;;;8.63;60.89;101134.53;5096643;28;20126;-80
2021/09/28 09:32:06;;;;;;;16.17;7.22;;;;;;;8.63;60.97;101134.53;5113752;28;20055;-78
2021/09/28 09:34:32;;;;;;;16.58;7.18;;;;;;;8.74;61.01;101138.38;5114910;28;20047;-79
2021/09/28 09:37:05;;;;;;;18.38;7.70;;;;;;;8.74;60.94;101142.78;5112798;28;20036;-78
2021/09/28 09:39:55;;;;;;;23.25;7.75;;;;;;;8.74;60.76;101158.63;5115007;28;20039;-80
2021/09/28 09:42:23;;;;;;;15.40;6.50;;;;;;;8.70;60.67;101142.06;5115244;28;20050;-78
2021/09/28 09:44:49;;;;;;;;;;;;;;;8.74;60.76;101142.78;5115578;28;20055;-81
2021/09/28 09:47:35;;;;;;;15.95;7.97;;;;;;;8.69;60.90;101144.78;5113073;28;19920;-77
2021/09/28 09:50:16;;;;;;;16.50;7.30;;;;;;;8.89;61.14;101152.63;5112696;28;20046;-81
2021/09/28 09:52:57;;;;;;;17.67;6.78;;;;;;;9.41;59.99;101148.47;5114663;28;20387;-78
2021/09/28 09:55:31;;;;;;;19.02;7.13;;;;;;;9.73;59.08;101151.28;5113564;28;20128;-78
2021/09/28 09:57:57;;;;;;;15.93;7.20;;;;;;;9.77;58.48;101154.66;5113869;28;20051;-80
2021/09/28 10:00:23;;;;;;;14.65;7.80;;;;;;;9.77;58.67;101152.88;5113024;28;20130;-76
2021/09/28 10:02:49;;;;;;;16.98;8.15;;;;;;;10.30;57.64;101153.69;5113661;27;20040;-79
2021/09/28 10:05:16;;;;;;;13.30;6.30;;;;;;;10.64;55.75;101156.38;5113508;27;20047;-81
2021/09/28 10:07:43;;;;;;;15.02;6.95;;;;;;;10.39;55.55;101152.41;5094977;28;20074;-79
2021/09/28 10:10:14;;;;;;;11.82;6.28;;;;;;;10.28;55.73;101157.34;5112941;28;20499;-79
2021/09/28 10:12:40;;;;;;;12.45;6.20;;;;;;;10.11;55.68;101158.25;5114417;28;20099;-77
2021/09/28 10:15:10;;;;;;;23.00;7.22;;;;;;;9.86;56.40;101165.63;5112358;28;20039;-76
2021/09/28 10:17:41;;;;;;;12.93;6.72;;;;;;;9.62;57.01;101156.25;5114048;28;20039;-76
2021/09/28 10:20:08;;;;;;;18.00;7.80;;;;;;;9.65;57.43;101156.97;5113839;28;20084;-78
2021/09/28 10:23:13;;;;;;;16.52;6.72;;;;;;;9.60;57.55;101152.84;5113832;28;20036;-80
2021/09/28 10:25:44;;;;;;;14.00;6.45;;;;;;;9.69;57.56;101152.38;5051491;28;20045;-83
2021/09/28 10:28:11;;;;;;;12.93;6.65;;;;;;;9.79;56.93;101147.50;5034675;28;20045;-79
2021/09/28 10:30:38;;;;;;;16.73;7.13;;;;;;;9.65;57.30;101151.69;5051080;28;20394;-78
2021/09/28 10:33:22;;;;;;;17.98;7.30;;;;;;;9.61;57.36;101144.84;5051013;28;20429;-78
2021/09/28 10:36:03;;;;;;;14.48;6.90;;;;;;;9.83;57.13;101155.22;5051171;28;20048;-79
2021/09/28 10:38:47;;;;;;;12.82;6.63;;;;;;;9.84;56.47;101159.56;5035022;28;20049;-79
2021/09/28 10:41:31;;;;;;;14.35;8.05;;;;;;;9.92;56.43;101155.66;5051089;28;20063;-78
2021/09/28 10:44:36;;;;;;;24.50;10.95;;;;;;;10.34;55.63;101154.41;5035796;28;20056;-80
2021/09/28 10:47:04;;;;;;;19.85;7.38;;;;;;;11.57;52.33;101156.59;5050617;28;20090;-79
2021/09/28 10:49:32;;;;;;;11.23;6.15;;;;;;;11.43;51.90;101155.59;5035336;28;20056;-84
2021/09/28 10:52:19;;;;;;;12.02;6.30;;;;;;;10.91;52.91;101148.75;5018037;28;20075;-79
2021/09/28 10:55:06;;;;;;;11.00;6.63;;;;;;;11.43;52.73;101144.16;5034348;28;20049;-83
2021/09/28 10:57:54;;;;;;;16.90;8.70;;;;;;;12.23;51.22;101134.16;5050342;28;20341;-82
2021/09/28 11:00:20;;;;;;;14.07;7.53;;;;;;;13.06;50.12;101138.78;5101702;28;20059;-80
2021/09/28 11:03:00;;;;;;;16.05;6.70;;;;;;;13.61;47.46;101136.19;5112964;28;20071;-79
2021/09/28 11:05:31;;;;;;;15.63;6.55;;;;;;;13.10;47.51;101142.94;5095567;28;20126;-78
2021/09/28 11:07:59;;;;;;;13.77;6.70;;;;;;;12.38;48.61;101147.47;5114998;28;20056;-77
2021/09/28 11:10:25;;;;;;;14.53;6.47;;;;;;;11.86;49.11;101156.69;5095868;28;20048;-79
2021/09/28 11:12:51;;;;;;;12.57;6.80;;;;;;;11.82;50.20;101151.59;5113864;28;20055;-79
2021/09/28 11:15:25;;;;;;;16.67;6.45;;;;;;;11.90;50.27;101153.78;5113940;28;20040;-81
2021/09/28 11:17:51;;;;;;;13.10;6.85;;;;;;;12.22;49.93;101158.13;5113487;28;20035;-80
2021/09/28 11:20:21;;;;;;;35.70;14.50;;;;;;;12.17;50.31;101154.91;5079686;28;20127;-80
2021/09/28 11:23:00;;;;;;;13.40;6.55;;;;;;;12.22;48.94;101161.63;5115471;28;20035;-80
2021/09/28 11:25:27;;;;;;;11.80;6.03;;;;;;;12.01;49.07;101150.50;5113416;28;20035;-80
2021/09/28 11:28:10;;;;;;;13.13;5.82;;;;;;;11.75;49.49;101158.19;5078391;28;20035;-78
2021/09/28 11:30:39;;;;;;;10.63;6.07;;;;;;;11.85;49.31;101160.28;5094655;28;20050;-82
2021/09/28 11:33:05;;;;;;;;;;;;;;;11.78;48.72;101151.84;5111871;28;20044;-80